This is the latest recevied weather packets stored in our database for station/object SQ8AQL-16. If no packets are shown the sender has not sent any weather packets the latest 10 day(s).
| Time | Temp. | Humidity | Pressure | Rain* | Wind** | Luminosity | Snow |
|---|---|---|---|---|---|---|---|
| 1777893501 | 34.44° C | 11% | 1016.8 hPa | - | - | 916 W/m² | - |
| 1777892600 | 32.22° C | 12% | 1016.9 hPa | - | - | 967 W/m² | - |
| 1777891699 | 30.56° C | 14% | 1017.2 hPa | - | - | 792 W/m² | - |
| 1777890797 | 30.56° C | 14% | 1017.4 hPa | - | - | 792 W/m² | - |
| 1777889896 | 29.44° C | 14% | 1017.6 hPa | - | - | 780 W/m² | - |
| 1777888094 | 26.11° C | 21% | 1017.9 hPa | - | - | 741 W/m² | - |
| 1777887193 | 22.78° C | 22% | 1018 hPa | - | - | 429 W/m² | - |
| 1777886292 | 21.67° C | 28% | 1018.1 hPa | - | - | 37 W/m² | - |
| 1777885391 | 21.67° C | 29% | 1018.3 hPa | - | - | 36 W/m² | - |
| 1777884490 | 20.56° C | 32% | 1018.5 hPa | - | - | 34 W/m² | - |
| 1777883589 | 20° C | 34% | 1018.6 hPa | - | - | 32 W/m² | - |
| 1777882688 | 19.44° C | 34% | 1018.6 hPa | - | - | 30 W/m² | - |
| 1777881787 | 19.44° C | 34% | 1018.6 hPa | - | - | 28 W/m² | - |
| 1777880886 | 18.89° C | 33% | 1018.5 hPa | - | - | 25 W/m² | - |
| 1777879984 | 18.89° C | 33% | 1018.5 hPa | - | - | 24 W/m² | - |
| 1777879083 | 18.33° C | 34% | 1018.6 hPa | - | - | 24 W/m² | - |
| 1777878183 | 17.78° C | 35% | 1018.5 hPa | - | - | 23 W/m² | - |
| 1777877282 | 17.22° C | 39% | 1018.6 hPa | - | - | 22 W/m² | - |
| 1777876381 | 15.56° C | 46% | 1018.5 hPa | - | - | 22 W/m² | - |
| 1777875480 | 15° C | 47% | 1018.6 hPa | - | - | 21 W/m² | - |
| 1777874578 | 13.89° C | 50% | 1018.4 hPa | - | - | 19 W/m² | - |
| 1777873677 | 13.89° C | 50% | 1018.3 hPa | - | - | 19 W/m² | - |
| 1777872776 | 12.78° C | 51% | 1018.4 hPa | - | - | 18 W/m² | - |
| 1777871874 | 12.22° C | 52% | 1018.2 hPa | - | - | 18 W/m² | - |
| 1777870973 | 11.67° C | 54% | 1018.1 hPa | - | - | 17 W/m² | - |
* Rain since midnight (hover to see other rain measurements)
** Current wind speed in m/s (hover to see current wind gust speed)